Time;durP1;ratioP1;P1;durP2;ratioP2;P2;SDS_P1;SDS_P2;PMS_P1;PMS_P2;Temp;Humidity;BMP_temperature;BMP_pressure;BME280_temperature;BME280_humidity;BME280_pressure;Samples;Min_cycle;Max_cycle;Signal;HPM_P1;HPM_P2
2021/03/15 00:00:51;;;;;;;20.87;3.23;;;;;;;12.71;51.46;100109.63;5094252;28;20442;-53
2021/03/15 00:03:23;;;;;;;10.20;1.90;;;;;;;11.96;53.05;100119.03;5093345;28;20440;-50
2021/03/15 00:05:57;;;;;;;16.27;3.17;;;;;;;12.56;52.13;100106.69;5093472;28;20459;-50
2021/03/15 00:08:24;;;;;;;8.50;2.83;;;;;;;12.71;51.95;100104.44;5089705;28;20479;-52
2021/03/15 00:10:51;;;;;;;8.90;1.57;;;;;;;12.39;53.02;100120.94;5083555;28;20466;-50
2021/03/15 00:13:19;;;;;;;8.40;1.77;;;;;;;11.13;56.05;100118.47;5092939;28;20542;-49
2021/03/15 00:15:45;;;;;;;8.47;1.63;;;;;;;11.59;54.90;100111.16;5094247;28;20766;-53
2021/03/15 00:18:12;;;;;;;9.53;1.70;;;;;;;11.61;53.91;100112.09;5093459;28;20448;-48
2021/03/15 00:20:40;;;;;;;10.73;1.50;;;;;;;11.47;54.12;100109.13;5094429;28;20599;-54
2021/03/15 00:23:06;;;;;;;11.67;1.57;;;;;;;11.39;54.56;100113.16;5093563;28;20548;-50
2021/03/15 00:25:33;;;;;;;6.60;2.33;;;;;;;11.87;53.72;100108.44;5093129;28;20480;-54
2021/03/15 00:28:00;;;;;;;8.40;2.00;;;;;;;12.10;53.37;100100.44;5090694;28;20484;-49
2021/03/15 00:30:26;;;;;;;6.50;1.33;;;;;;;11.85;53.91;100110.09;5094276;28;20438;-48
2021/03/15 00:32:53;;;;;;;10.50;2.20;;;;;;;11.92;53.16;100100.78;5093130;28;21128;-54
2021/03/15 00:35:21;;;;;;;19.77;2.90;;;;;;;12.37;52.47;100104.53;5093766;28;20462;-50
2021/03/15 00:37:49;;;;;;;25.70;3.40;;;;;;;12.19;52.80;100113.56;5092854;28;20462;-51
2021/03/15 00:40:18;;;;;;;9.20;1.87;;;;;;;12.28;52.06;100106.06;5094252;28;20853;-52
2021/03/15 00:42:45;;;;;;;9.40;2.03;;;;;;;12.07;52.42;100105.50;5088139;28;20457;-53
2021/03/15 00:45:13;;;;;;;9.13;2.27;;;;;;;12.17;53.36;100098.84;5079395;28;20517;-52
2021/03/15 00:47:40;;;;;;;6.10;1.23;;;;;;;11.81;53.49;100100.50;5088430;28;20464;-51
2021/03/15 00:50:10;;;;;;;24.80;2.90;;;;;;;12.30;52.50;100095.72;5084493;28;20855;-49
2021/03/15 00:52:36;;;;;;;8.63;1.93;;;;;;;11.73;53.73;100103.78;5075125;28;20776;-47
2021/03/15 00:55:04;;;;;;;5.93;1.73;;;;;;;11.65;53.78;100100.13;5083638;28;20473;-51
2021/03/15 00:57:31;;;;;;;7.47;1.67;;;;;;;11.65;53.78;100099.22;5094878;28;20575;-51
2021/03/15 00:59:57;;;;;;;9.63;2.20;;;;;;;11.80;53.82;100096.19;5086076;28;20437;-52
2021/03/15 01:02:25;;;;;;;9.63;2.63;;;;;;;12.28;53.29;100098.31;5097157;28;20475;-54
2021/03/15 01:04:52;;;;;;;19.53;3.07;;;;;;;12.32;53.00;100098.34;5095109;28;20468;-48
2021/03/15 01:07:19;;;;;;;15.53;3.10;;;;;;;12.09;52.83;100106.41;5077156;28;20502;-51
2021/03/15 01:09:45;;;;;;;8.83;1.53;;;;;;;11.44;53.98;100098.69;5095994;28;20915;-51
2021/03/15 01:12:13;;;;;;;11.70;2.43;;;;;;;11.52;54.48;100095.44;5096573;28;20815;-54
2021/03/15 01:14:39;;;;;;;8.33;1.37;;;;;;;11.75;53.88;100091.75;5097951;28;20436;-49
2021/03/15 01:17:09;;;;;;;4.23;1.13;;;;;;;11.37;54.48;100081.25;5097300;28;20526;-50
2021/03/15 01:19:36;;;;;;;8.60;2.40;;;;;;;11.46;54.45;100078.97;5098232;28;20591;-50
2021/03/15 01:22:03;;;;;;;15.30;2.10;;;;;;;11.79;53.46;100079.78;5096945;28;20543;-52
2021/03/15 01:24:29;;;;;;;11.03;1.90;;;;;;;12.00;52.91;100074.28;5091554;28;20483;-48
2021/03/15 01:26:56;;;;;;;10.97;2.40;;;;;;;11.88;53.56;100076.56;5089608;28;20487;-51
2021/03/15 01:29:23;;;;;;;11.63;2.07;;;;;;;11.78;53.54;100066.84;5098109;28;20565;-49
2021/03/15 01:31:50;;;;;;;8.03;2.00;;;;;;;12.37;52.28;100068.31;5098297;28;20433;-49
2021/03/15 01:34:17;;;;;;;6.13;2.03;;;;;;;12.09;52.37;100072.78;5096484;28;20454;-52
2021/03/15 01:36:52;;;;;;;10.67;1.43;;;;;;;11.85;52.72;100074.78;5097850;28;20856;-50
2021/03/15 01:39:19;;;;;;;16.20;2.10;;;;;;;11.86;53.27;100075.66;5096498;28;20937;-49
2021/03/15 01:41:45;;;;;;;17.07;2.40;;;;;;;11.79;52.98;100069.44;5098142;28;20849;-47
2021/03/15 01:44:12;;;;;;;10.20;1.80;;;;;;;11.31;54.47;100060.44;5096208;28;20453;-55
2021/03/15 01:46:39;;;;;;;15.30;3.47;;;;;;;11.50;53.99;100053.19;5097565;28;20492;-54
2021/03/15 01:49:06;;;;;;;8.20;2.83;;;;;;;11.84;52.85;100051.50;5102206;28;20459;-53
2021/03/15 01:51:33;;;;;;;7.93;2.10;;;;;;;11.54;53.88;100047.28;5097753;28;20746;-52
2021/03/15 01:53:59;;;;;;;13.13;2.30;;;;;;;11.48;54.26;100043.69;5096541;28;20541;-51
2021/03/15 01:56:26;;;;;;;12.47;3.00;;;;;;;12.60;51.87;100044.69;5097438;28;20890;-50
2021/03/15 01:58:53;;;;;;;12.13;2.97;;;;;;;12.12;52.36;100052.19;5087553;28;20479;-51
2021/03/15 02:01:19;;;;;;;17.67;3.63;;;;;;;12.71;51.55;100050.94;5091912;28;20463;-53
2021/03/15 02:03:47;;;;;;;5.93;1.93;;;;;;;11.85;52.23;100058.41;5095589;28;20535;-52
2021/03/15 02:06:14;;;;;;;10.33;2.67;;;;;;;12.18;52.33;100054.94;5097399;28;20493;-55
2021/03/15 02:08:40;;;;;;;13.30;2.40;;;;;;;12.05;52.84;100060.66;5095780;28;20478;-52
2021/03/15 02:11:11;;;;;;;8.70;3.20;;;;;;;12.39;52.09;100045.91;5097609;28;20804;-50
2021/03/15 02:13:53;;;;;;;10.07;2.60;;;;;;;12.27;52.74;100052.56;5096026;28;20927;-49
2021/03/15 02:16:28;;;;;;;12.63;2.20;;;;;;;12.14;52.79;100045.34;5097032;28;20435;-52
2021/03/15 02:19:09;;;;;;;13.10;2.50;;;;;;;12.47;51.91;100044.41;5093552;28;20477;-52
2021/03/15 02:22:01;;;;;;;14.50;3.30;;;;;;;12.60;51.98;100044.69;5097288;28;20468;-51
2021/03/15 02:24:34;;;;;;;7.83;2.10;;;;;;;12.28;52.35;100037.94;5080279;28;20751;-50
2021/03/15 02:27:24;;;;;;;14.20;2.00;;;;;;;12.32;51.74;100038.88;5095100;28;20763;-55
2021/03/15 02:30:26;;;;;;;7.30;1.83;;;;;;;12.27;52.19;100031.88;5088277;28;20457;-48
2021/03/15 02:33:19;;;;;;;6.33;1.67;;;;;;;11.80;53.51;100026.41;5083244;28;20500;-49
2021/03/15 02:35:47;;;;;;;6.03;2.47;;;;;;;11.63;54.52;100015.66;5096290;28;20885;-52
2021/03/15 02:38:15;;;;;;;10.03;2.83;;;;;;;11.77;54.16;100008.22;5095586;28;20824;-49
2021/03/15 02:40:44;;;;;;;6.50;2.40;;;;;;;11.32;54.91;100013.13;5094025;28;20523;-50
2021/03/15 02:43:15;;;;;;;6.40;2.13;;;;;;;11.88;54.02;100009.38;5105623;28;20477;-50
2021/03/15 02:45:44;;;;;;;9.47;2.07;;;;;;;11.74;54.29;100012.50;5098382;28;20545;-48
2021/03/15 02:48:12;;;;;;;16.00;3.60;;;;;;;11.46;54.41;100003.16;5085124;28;20925;-51
2021/03/15 02:50:40;;;;;;;9.90;1.80;;;;;;;11.73;54.05;100007.28;5076672;28;20455;-49
2021/03/15 02:53:11;;;;;;;4.50;1.83;;;;;;;11.61;53.88;100008.75;5075328;28;20921;-50
2021/03/15 02:55:38;;;;;;;5.97;2.23;;;;;;;11.61;54.06;100003.56;5076274;28;20962;-49
2021/03/15 02:58:05;;;;;;;19.57;3.57;;;;;;;12.38;52.11;100008.84;5075576;28;20478;-50
2021/03/15 03:00:32;;;;;;;19.43;3.37;;;;;;;12.49;51.67;100006.50;5076654;28;20520;-49
2021/03/15 03:03:00;;;;;;;16.33;4.40;;;;;;;12.19;52.90;100007.53;5075478;28;20734;-49
2021/03/15 03:05:27;;;;;;;17.10;3.70;;;;;;;12.11;52.93;100002.19;5072654;28;20454;-49
2021/03/15 03:08:15;;;;;;;7.87;3.10;;;;;;;12.06;53.08;99997.75;5075322;28;20910;-49
2021/03/15 03:10:43;;;;;;;10.67;2.90;;;;;;;12.06;52.92;100000.34;5076157;28;20437;-50
2021/03/15 03:13:10;;;;;;;16.77;4.03;;;;;;;12.35;52.48;99997.56;5075175;28;20861;-50
2021/03/15 03:15:38;;;;;;;19.80;4.10;;;;;;;12.17;52.64;99996.31;5075123;28;20800;-50
2021/03/15 03:18:05;;;;;;;13.73;3.03;;;;;;;12.23;52.74;99991.28;5075023;28;20932;-50
2021/03/15 03:20:32;;;;;;;21.10;2.40;;;;;;;11.74;53.93;99989.22;5076139;28;20877;-48
2021/03/15 03:23:02;;;;;;;20.33;3.80;;;;;;;12.06;53.17;99993.47;5075310;28;20750;-49
2021/03/15 03:25:30;;;;;;;14.87;3.57;;;;;;;12.15;53.01;99995.38;5075926;28;20540;-49
2021/03/15 03:27:57;;;;;;;18.17;4.03;;;;;;;12.53;52.45;99997.97;5064499;28;20505;-52
2021/03/15 03:30:26;;;;;;;18.03;4.40;;;;;;;12.48;52.42;100004.75;5076079;28;20783;-53
2021/03/15 03:32:54;;;;;;;8.73;2.20;;;;;;;11.68;53.25;99999.41;5070591;28;20492;-49
2021/03/15 03:35:22;;;;;;;12.13;2.70;;;;;;;12.04;53.56;99999.44;5075765;28;20444;-51
2021/03/15 03:37:49;;;;;;;6.70;1.77;;;;;;;11.44;54.94;100000.53;5070903;28;20944;-52
2021/03/15 03:40:16;;;;;;;14.80;3.40;;;;;;;11.91;54.12;100000.81;5075914;28;20450;-48
2021/03/15 03:42:44;;;;;;;28.67;3.57;;;;;;;11.32;55.15;99995.03;5072573;28;20450;-54
2021/03/15 03:45:12;;;;;;;9.80;2.23;;;;;;;11.34;54.91;99998.56;5075455;28;20532;-49
2021/03/15 03:47:40;;;;;;;12.53;2.10;;;;;;;11.17;55.50;99998.97;5074579;28;20906;-51
2021/03/15 03:50:09;;;;;;;13.77;3.53;;;;;;;12.17;53.89;99988.53;5075961;28;20438;-51
2021/03/15 03:52:37;;;;;;;15.63;3.43;;;;;;;11.28;54.65;99988.06;5074810;28;20506;-48
2021/03/15 03:55:06;;;;;;;18.43;2.90;;;;;;;11.52;54.38;99992.09;5075418;28;20454;-52
2021/03/15 03:57:33;;;;;;;6.73;2.10;;;;;;;11.53;54.80;99988.72;5074000;28;20548;-47
2021/03/15 04:00:06;;;;;;;17.00;3.23;;;;;;;11.94;53.63;99991.41;5075566;28;20479;-49
2021/03/15 04:02:33;;;;;;;18.03;3.23;;;;;;;11.77;53.35;99985.84;5063675;28;20823;-50
2021/03/15 04:05:03;;;;;;;13.73;4.13;;;;;;;12.11;53.33;99986.66;5047635;28;20462;-51
2021/03/15 04:07:32;;;;;;;12.93;3.37;;;;;;;11.59;54.48;99983.69;5059198;28;20469;-50
2021/03/15 04:10:04;;;;;;;14.10;3.63;;;;;;;11.65;54.04;99983.84;5082403;28;20462;-47
2021/03/15 04:12:31;;;;;;;28.03;3.20;;;;;;;12.01;53.23;99974.34;5086023;28;21319;-50
2021/03/15 04:14:59;;;;;;;7.63;3.00;;;;;;;11.62;54.17;99978.59;5094578;28;20443;-48
2021/03/15 04:17:30;;;;;;;4.63;1.73;;;;;;;11.50;54.67;99981.75;5089513;28;20450;-48
2021/03/15 04:20:01;;;;;;;23.30;3.80;;;;;;;11.96;53.90;99974.25;5082101;28;20494;-52
2021/03/15 04:22:28;;;;;;;10.63;3.60;;;;;;;11.18;54.77;99974.88;5090053;28;20616;-48
2021/03/15 04:24:55;;;;;;;19.43;5.80;;;;;;;12.01;53.26;99971.78;5094389;28;20440;-49
2021/03/15 04:27:23;;;;;;;12.00;4.17;;;;;;;11.97;53.68;99980.28;5096910;28;20489;-49
2021/03/15 04:29:50;;;;;;;16.53;3.03;;;;;;;11.47;54.57;99979.97;5075805;27;20491;-49
2021/03/15 04:32:17;;;;;;;7.63;2.50;;;;;;;11.22;54.87;99983.59;5084419;28;20459;-50
2021/03/15 04:34:45;;;;;;;7.23;2.60;;;;;;;11.39;54.57;99986.59;5098831;28;20458;-48
2021/03/15 04:37:12;;;;;;;5.40;1.83;;;;;;;10.63;56.39;99995.75;5072407;28;20654;-52
2021/03/15 04:39:40;;;;;;;15.20;4.33;;;;;;;11.60;54.34;99993.19;5080255;28;20917;-51
2021/03/15 04:42:07;;;;;;;8.30;2.10;;;;;;;11.50;54.41;99993.78;5076203;28;20490;-50
2021/03/15 04:44:34;;;;;;;25.47;2.00;;;;;;;11.26;54.86;99994.88;5078647;28;20924;-51
2021/03/15 04:47:01;;;;;;;8.20;3.33;;;;;;;11.41;54.89;99995.28;5077465;28;20514;-52
2021/03/15 04:49:29;;;;;;;5.63;2.50;;;;;;;11.07;54.53;99989.22;5079357;28;20456;-49
2021/03/15 04:51:57;;;;;;;9.90;2.57;;;;;;;10.72;55.68;99991.69;5077228;28;20461;-48
2021/03/15 04:54:24;;;;;;;9.03;2.10;;;;;;;10.99;55.97;99982.97;5078678;28;20482;-50
2021/03/15 04:56:53;;;;;;;6.13;2.20;;;;;;;10.71;56.43;99974.47;5078959;28;20451;-50
2021/03/15 04:59:22;;;;;;;7.13;3.20;;;;;;;10.98;55.82;99979.50;5078932;28;20459;-51
2021/03/15 05:01:49;;;;;;;4.70;2.20;;;;;;;11.11;54.79;99980.72;5079055;28;20429;-52
2021/03/15 05:04:16;;;;;;;7.60;2.73;;;;;;;11.08;54.65;99980.66;5080687;28;20920;-49
2021/03/15 05:06:44;;;;;;;6.47;2.23;;;;;;;11.28;54.80;99980.31;5078847;28;20482;-48
2021/03/15 05:09:13;;;;;;;5.33;2.10;;;;;;;10.75;56.23;99976.28;5077799;28;20437;-50
2021/03/15 05:11:41;;;;;;;14.43;3.77;;;;;;;11.67;54.14;99969.25;5078853;28;20455;-47
2021/03/15 05:14:08;;;;;;;8.47;2.80;;;;;;;11.45;54.35;99955.78;5076751;28;20447;-51
2021/03/15 05:16:36;;;;;;;10.13;3.23;;;;;;;11.08;54.64;99962.59;5078599;28;20451;-50
2021/03/15 05:19:03;;;;;;;9.10;2.60;;;;;;;10.82;55.59;99947.22;5077202;28;20467;-49
2021/03/15 05:21:32;;;;;;;11.47;3.87;;;;;;;11.03;55.42;99953.84;5078566;28;20436;-48
2021/03/15 05:23:59;;;;;;;3.50;2.13;;;;;;;10.92;55.86;99950.97;5083710;28;20468;-51
2021/03/15 05:26:27;;;;;;;11.03;3.13;;;;;;;11.17;55.36;99957.66;5078415;28;20483;-48
2021/03/15 05:28:54;;;;;;;5.77;3.03;;;;;;;10.94;55.19;99955.31;5076626;28;20518;-51
2021/03/15 05:31:21;;;;;;;16.37;5.57;;;;;;;11.26;54.46;99953.56;5078032;28;20432;-51
2021/03/15 05:33:49;;;;;;;6.13;2.87;;;;;;;11.57;54.44;99954.34;5077239;28;20536;-52
2021/03/15 05:36:16;;;;;;;15.23;4.13;;;;;;;11.52;54.24;99961.09;5077905;28;20465;-51
2021/03/15 05:38:44;;;;;;;13.30;3.60;;;;;;;11.48;54.19;99963.63;5075575;28;20563;-48
2021/03/15 05:41:12;;;;;;;9.47;1.77;;;;;;;11.72;53.37;99949.56;5078065;28;20848;-52
2021/03/15 05:44:09;;;;;;;11.10;4.53;;;;;;;11.33;54.44;99960.63;5077152;28;20487;-49
2021/03/15 05:47:14;;;;;;;20.93;3.97;;;;;;;11.24;54.55;99965.56;5073001;28;20488;-49
2021/03/15 05:50:03;;;;;;;14.43;3.33;;;;;;;11.45;54.65;99953.19;5077623;28;20456;-50
2021/03/15 05:52:46;;;;;;;7.23;3.13;;;;;;;11.61;54.23;99954.47;5075018;28;20548;-47
2021/03/15 05:55:31;;;;;;;14.30;3.67;;;;;;;11.39;54.32;99953.03;5077744;28;20522;-48
2021/03/15 05:58:27;;;;;;;6.53;1.80;;;;;;;10.99;54.82;99942.56;5076545;28;20570;-49
2021/03/15 06:01:09;;;;;;;3.93;2.00;;;;;;;10.84;55.60;99945.59;5077221;28;20446;-50
2021/03/15 06:04:03;;;;;;;9.03;3.60;;;;;;;11.92;53.15;99936.25;5083980;28;20478;-52
2021/03/15 06:06:36;;;;;;;12.07;2.10;;;;;;;11.38;54.35;99940.09;5097340;28;20485;-49
2021/03/15 06:09:04;;;;;;;12.37;2.57;;;;;;;11.19;54.65;99937.91;5094895;28;20475;-50
2021/03/15 06:11:35;;;;;;;4.90;1.80;;;;;;;10.55;56.01;99927.56;5097333;28;20437;-50
2021/03/15 06:14:02;;;;;;;12.80;2.60;;;;;;;11.47;54.55;99928.28;5092986;28;20473;-50
2021/03/15 06:16:29;;;;;;;5.73;2.00;;;;;;;11.41;54.10;99922.09;5097275;28;20436;-49
2021/03/15 06:18:57;;;;;;;9.23;1.87;;;;;;;11.25;54.59;99926.00;5095841;28;20481;-48
2021/03/15 06:21:24;;;;;;;4.60;1.43;;;;;;;11.30;54.74;99927.00;5097068;28;20866;-52
2021/03/15 06:23:51;;;;;;;4.03;1.20;;;;;;;11.17;54.68;99923.22;5095776;28;20478;-52
2021/03/15 06:26:18;;;;;;;10.27;2.57;;;;;;;11.42;53.93;99929.00;5097346;28;20442;-48
2021/03/15 06:28:44;;;;;;;6.03;1.93;;;;;;;10.89;55.04;99922.50;5098969;28;20849;-49
2021/03/15 06:31:11;;;;;;;13.93;2.93;;;;;;;10.90;55.64;99922.53;5098915;28;20555;-51
2021/03/15 06:33:39;;;;;;;9.47;3.60;;;;;;;11.50;54.65;99917.16;5095436;28;20484;-53
2021/03/15 06:36:07;;;;;;;12.33;1.97;;;;;;;11.66;53.52;99905.50;5098920;28;20472;-50
2021/03/15 06:38:35;;;;;;;9.23;2.73;;;;;;;11.77;53.77;99904.84;5096116;28;20479;-54
2021/03/15 06:41:05;;;;;;;6.67;2.77;;;;;;;11.23;54.74;99912.19;5093858;28;20741;-50
2021/03/15 06:43:31;;;;;;;7.20;2.17;;;;;;;11.15;55.85;99909.41;5089703;28;20485;-48
2021/03/15 06:45:58;;;;;;;11.23;3.17;;;;;;;11.47;55.77;99907.63;5096231;28;20837;-50
2021/03/15 06:48:25;;;;;;;16.93;4.63;;;;;;;11.64;54.71;99914.03;5095007;28;20481;-50
2021/03/15 06:50:54;;;;;;;8.27;4.20;;;;;;;11.36;55.81;99919.41;5092170;28;20532;-52
2021/03/15 06:53:21;;;;;;;10.50;3.13;;;;;;;11.45;55.76;99916.19;5086395;28;20461;-51
2021/03/15 06:55:49;;;;;;;13.27;2.87;;;;;;;11.08;56.75;99913.53;5096063;28;20451;-50
2021/03/15 06:58:26;;;;;;;2.63;1.40;;;;;;;11.25;57.05;99913.09;5095465;28;20838;-50
2021/03/15 07:01:16;;;;;;;11.93;2.90;;;;;;;10.83;58.13;99906.84;5096614;28;20468;-48
2021/03/15 07:03:43;;;;;;;12.93;2.63;;;;;;;10.82;57.98;99900.78;5095490;28;20908;-51
2021/03/15 07:06:11;;;;;;;15.33;4.97;;;;;;;11.04;58.08;99899.66;5095694;28;20760;-48
2021/03/15 07:08:38;;;;;;;11.40;3.00;;;;;;;11.26;56.84;99897.63;5093382;28;20920;-50
2021/03/15 07:11:23;;;;;;;10.03;3.33;;;;;;;11.13;57.64;99909.34;5096651;28;20468;-53
2021/03/15 07:13:50;;;;;;;6.73;2.23;;;;;;;10.52;59.64;99910.31;5111873;28;20796;-52
2021/03/15 07:16:24;;;;;;;13.30;3.77;;;;;;;10.99;58.82;99908.13;5080404;28;20449;-50
2021/03/15 07:18:51;;;;;;;3.70;1.10;;;;;;;11.03;58.54;99900.50;5083475;27;20444;-49
2021/03/15 07:21:31;;;;;;;18.00;4.23;;;;;;;11.18;57.82;99897.44;5064097;28;20467;-54
2021/03/15 07:23:58;;;;;;;5.67;2.30;;;;;;;10.98;59.22;99885.72;5077420;28;20536;-49
2021/03/15 07:26:27;;;;;;;7.63;2.50;;;;;;;10.74;58.83;99904.88;5075601;28;20545;-48
2021/03/15 07:28:54;;;;;;;15.23;4.97;;;;;;;11.05;58.28;99905.69;5074476;28;20483;-49
2021/03/15 07:31:22;;;;;;;5.57;2.07;;;;;;;11.09;59.12;99904.97;5075438;28;20925;-53
2021/03/15 07:34:16;;;;;;;7.13;2.23;;;;;;;10.61;60.63;99908.84;5074466;28;20538;-50
2021/03/15 07:37:04;;;;;;;7.27;2.17;;;;;;;10.37;60.48;99900.38;5065286;28;20475;-48
2021/03/15 07:39:32;;;;;;;4.60;1.77;;;;;;;10.34;60.72;99908.06;5085829;28;20463;-47
2021/03/15 07:42:00;;;;;;;5.33;2.53;;;;;;;10.69;60.03;99914.19;5086468;28;20896;-49
2021/03/15 07:44:28;;;;;;;8.57;1.73;;;;;;;10.77;60.65;99904.97;5069799;28;20548;-48
2021/03/15 07:46:56;;;;;;;15.77;3.90;;;;;;;11.55;58.88;99904.34;5081247;28;20468;-48
2021/03/15 07:49:28;;;;;;;11.37;2.60;;;;;;;11.29;59.21;99905.44;5090501;28;20493;-50
2021/03/15 07:52:01;;;;;;;5.93;1.90;;;;;;;11.16;60.03;99916.31;5077779;28;20459;-50
2021/03/15 07:54:33;;;;;;;2.70;1.07;;;;;;;10.72;60.13;99902.25;5094744;28;20816;-51
2021/03/15 07:57:17;;;;;;;12.97;2.83;;;;;;;11.06;60.09;99890.25;5093308;28;20466;-49
2021/03/15 07:59:45;;;;;;;6.13;2.60;;;;;;;11.01;60.69;99915.06;5095356;28;20518;-50
2021/03/15 08:02:17;;;;;;;7.10;1.93;;;;;;;11.09;60.53;99904.97;5093579;28;20912;-48
2021/03/15 08:04:45;;;;;;;10.00;2.57;;;;;;;11.34;60.42;99905.59;5095151;28;20432;-49
2021/03/15 08:07:13;;;;;;;3.03;1.67;;;;;;;10.84;61.16;99912.03;5084668;28;20460;-51
2021/03/15 08:09:45;;;;;;;9.50;2.63;;;;;;;11.35;60.40;99903.00;5090789;28;20516;-50
2021/03/15 08:12:12;;;;;;;9.30;2.60;;;;;;;10.99;60.84;99902.97;5069977;28;20459;-47
2021/03/15 08:14:43;;;;;;;10.40;4.33;;;;;;;11.26;60.30;99902.81;5088060;28;20514;-48
2021/03/15 08:17:12;;;;;;;8.73;2.10;;;;;;;10.86;61.63;99912.94;5090405;28;20740;-50
2021/03/15 08:19:39;;;;;;;13.07;2.73;;;;;;;11.59;59.23;99916.53;5094808;28;20480;-51
2021/03/15 08:22:07;;;;;;;9.67;3.70;;;;;;;11.85;58.95;99890.41;5094031;28;20845;-50
2021/03/15 08:24:38;;;;;;;4.30;2.17;;;;;;;11.68;59.09;99916.72;5094967;28;20465;-49
2021/03/15 08:27:06;;;;;;;9.27;2.30;;;;;;;11.68;59.15;99911.56;5095114;28;20517;-51
2021/03/15 08:29:42;;;;;;;10.33;2.50;;;;;;;12.34;58.89;99913.03;5090996;27;20790;-49
2021/03/15 08:32:10;;;;;;;12.80;3.07;;;;;;;12.22;58.58;99916.22;5094151;28;20466;-50
2021/03/15 08:34:38;;;;;;;14.80;4.27;;;;;;;12.33;57.70;99912.16;5082116;28;20463;-46
2021/03/15 08:37:05;;;;;;;5.13;1.97;;;;;;;12.54;57.52;99911.75;5093787;28;20539;-49
2021/03/15 08:39:40;;;;;;;14.97;4.03;;;;;;;12.22;58.19;99911.06;5095014;28;20854;-48
2021/03/15 08:42:27;;;;;;;13.87;3.67;;;;;;;12.63;56.82;99910.16;5093922;28;20437;-49
2021/03/15 08:45:28;;;;;;;12.60;4.37;;;;;;;12.54;57.03;99911.75;5083920;28;20523;-51
2021/03/15 08:48:00;;;;;;;33.80;4.60;;;;;;;12.12;57.80;99908.28;5093626;28;20535;-47
2021/03/15 08:51:00;;;;;;;17.53;3.47;;;;;;;12.53;57.28;99920.34;5086367;28;20562;-47
2021/03/15 08:53:49;;;;;;;21.77;3.67;;;;;;;12.79;55.53;99917.41;5079393;28;20574;-49
2021/03/15 08:56:37;;;;;;;15.73;3.10;;;;;;;11.11;61.10;99920.47;5083008;28;20448;-48
2021/03/15 08:59:06;;;;;;;13.80;3.63;;;;;;;10.80;62.10;99913.66;5083211;28;20753;-51
2021/03/15 09:01:56;;;;;;;13.67;2.20;;;;;;;10.21;62.99;99916.25;5091352;28;20470;-50
2021/03/15 09:04:43;;;;;;;6.87;2.67;;;;;;;9.73;64.51;99916.53;5075657;27;20791;-49
2021/03/15 09:07:30;;;;;;;12.40;2.33;;;;;;;10.38;63.76;99915.06;5083150;28;20482;-50
2021/03/15 09:09:58;;;;;;;16.43;3.50;;;;;;;10.57;63.13;99910.47;5090326;28;20436;-50
2021/03/15 09:12:24;;;;;;;9.50;2.53;;;;;;;10.69;62.43;99914.19;5084169;28;20465;-49
2021/03/15 09:14:55;;;;;;;14.80;2.60;;;;;;;10.46;62.98;99917.00;5098448;28;20561;-50
2021/03/15 09:17:33;;;;;;;19.00;3.00;;;;;;;10.73;62.37;99926.34;5097602;28;20501;-51
2021/03/15 09:20:19;;;;;;;22.53;3.33;;;;;;;10.52;62.72;99909.44;5098331;28;20744;-49
2021/03/15 09:22:46;;;;;;;14.53;2.40;;;;;;;10.58;62.79;99912.19;5097119;28;20473;-46
2021/03/15 09:25:22;;;;;;;11.10;2.33;;;;;;;10.71;62.04;99907.38;5086419;28;21049;-53
2021/03/15 09:27:53;;;;;;;15.83;3.70;;;;;;;10.74;62.14;99913.50;5097101;28;20576;-50
2021/03/15 09:30:25;;;;;;;11.03;1.87;;;;;;;10.47;61.50;99911.03;5098136;28;20466;-47
2021/03/15 09:32:53;;;;;;;18.23;3.50;;;;;;;11.06;61.09;99910.03;5097225;28;20479;-52
2021/03/15 09:35:29;;;;;;;26.40;3.43;;;;;;;11.39;60.59;99913.44;5097935;28;20519;-49
2021/03/15 09:37:58;;;;;;;23.77;3.17;;;;;;;11.16;60.68;99901.69;5087888;28;20494;-49
2021/03/15 09:40:28;;;;;;;33.83;4.47;;;;;;;11.02;61.47;99905.63;5097805;28;20527;-48
2021/03/15 09:42:55;;;;;;;12.13;1.53;;;;;;;10.54;62.38;99905.19;5082272;28;20516;-51
2021/03/15 09:45:29;;;;;;;29.33;3.03;;;;;;;10.47;62.68;99908.44;5097556;28;20516;-51
2021/03/15 09:47:57;;;;;;;23.93;3.10;;;;;;;10.88;61.52;99919.03;5089646;28;20473;-48
2021/03/15 09:50:25;;;;;;;16.97;2.40;;;;;;;10.88;61.68;99906.13;5097747;28;21284;-52
2021/03/15 09:52:52;;;;;;;21.23;3.00;;;;;;;10.77;61.84;99912.72;5082440;28;20441;-48
2021/03/15 09:55:19;;;;;;;16.80;3.00;;;;;;;10.78;61.48;99919.63;5097441;28;20820;-48
2021/03/15 09:57:46;;;;;;;17.63;2.63;;;;;;;10.22;63.52;99898.25;5096015;28;20483;-52
2021/03/15 10:00:15;;;;;;;17.57;2.73;;;;;;;10.70;62.32;99897.88;5097373;28;20458;-49
2021/03/15 10:02:44;;;;;;;36.20;2.70;;;;;;;10.75;62.64;99906.63;5096519;28;20535;-48
2021/03/15 10:05:18;;;;;;;8.07;2.10;;;;;;;10.61;62.20;99907.13;5096752;28;20732;-50
2021/03/15 10:07:46;;;;;;;10.87;2.57;;;;;;;10.73;62.46;99911.75;5088237;28;20485;-52
2021/03/15 10:10:17;;;;;;;13.03;2.70;;;;;;;10.75;62.97;99906.63;5083472;28;20515;-47
2021/03/15 10:12:45;;;;;;;17.03;4.20;;;;;;;10.81;61.66;99906.78;5090649;27;20469;-47
2021/03/15 10:15:14;;;;;;;17.67;2.90;;;;;;;10.74;62.21;99903.19;5104492;28;20985;-49
2021/03/15 10:17:40;;;;;;;21.90;3.47;;;;;;;10.69;62.33;99909.03;5095958;28;20462;-47
2021/03/15 10:20:29;;;;;;;22.83;7.57;;;;;;;10.74;63.49;99891.97;5097181;28;20458;-51
2021/03/15 10:22:56;;;;;;;26.70;5.40;;;;;;;11.13;62.25;99917.09;5086861;28;20474;-53
2021/03/15 10:25:23;;;;;;;18.93;3.40;;;;;;;10.76;62.52;99913.53;5094872;28;20462;-51
2021/03/15 10:27:55;;;;;;;22.47;4.70;;;;;;;10.77;61.45;99916.16;5095590;28;20554;-48
2021/03/15 10:30:26;;;;;;;37.63;9.07;;;;;;;11.60;60.93;99915.69;5096886;28;20832;-48
2021/03/15 10:32:53;;;;;;;25.13;3.70;;;;;;;11.05;60.80;99914.34;5086226;28;20508;-49
2021/03/15 10:35:20;;;;;;;30.37;8.70;;;;;;;10.92;60.06;99923.44;5096411;28;20522;-50
2021/03/15 10:37:49;;;;;;;17.50;3.00;;;;;;;10.96;61.54;99918.38;5095883;28;20485;-50
2021/03/15 10:40:18;;;;;;;20.17;4.40;;;;;;;11.13;60.92;99917.09;5096664;28;20737;-53
2021/03/15 10:42:46;;;;;;;20.03;3.13;;;;;;;11.14;61.40;99908.53;5095757;28;20986;-50
2021/03/15 10:45:13;;;;;;;17.23;3.97;;;;;;;10.83;62.51;99927.47;5096462;28;20887;-51
2021/03/15 10:47:41;;;;;;;19.23;3.93;;;;;;;10.43;63.53;99907.47;5095334;28;20461;-49
2021/03/15 10:50:27;;;;;;;20.60;3.03;;;;;;;10.76;63.95;99913.53;5096271;28;20465;-52
2021/03/15 10:52:55;;;;;;;45.27;9.87;;;;;;;10.49;63.22;99914.50;5092832;28;20478;-50
2021/03/15 10:55:24;;;;;;;27.83;4.70;;;;;;;10.59;62.51;99913.94;5096328;28;20457;-47
2021/03/15 10:58:01;;;;;;;10.07;4.20;;;;;;;10.13;62.35;99929.78;5093750;28;20480;-50
2021/03/15 11:00:30;;;;;;;14.33;2.50;;;;;;;10.12;62.35;99920.28;5089762;28;20472;-52
2021/03/15 11:02:57;;;;;;;10.23;2.10;;;;;;;10.32;62.76;99919.16;5092810;28;20479;-51
2021/03/15 11:05:24;;;;;;;16.83;2.90;;;;;;;10.64;61.89;99906.34;5095202;28;20457;-54
2021/03/15 11:07:52;;;;;;;16.03;3.83;;;;;;;10.70;61.73;99926.25;5090728;27;20490;-53
2021/03/15 11:10:22;;;;;;;10.10;2.60;;;;;;;10.97;61.17;99920.13;5103912;28;20461;-51
2021/03/15 11:12:50;;;;;;;9.87;2.30;;;;;;;10.90;61.64;99919.97;5093718;28;20471;-51
2021/03/15 11:15:20;;;;;;;14.67;2.40;;;;;;;10.58;61.91;99916.47;5094581;28;20462;-49
2021/03/15 11:18:10;;;;;;;9.63;2.80;;;;;;;10.96;60.87;99913.22;5093949;28;20451;-54
2021/03/15 11:20:49;;;;;;;21.70;3.77;;;;;;;10.84;61.51;99913.75;5094967;28;20470;-50
2021/03/15 11:23:28;;;;;;;12.83;3.70;;;;;;;11.29;60.95;99910.63;5088475;28;20816;-53
2021/03/15 11:26:04;;;;;;;21.20;5.00;;;;;;;11.04;61.05;99899.66;5094153;28;20466;-53
2021/03/15 11:28:32;;;;;;;19.40;2.50;;;;;;;11.43;60.84;99923.88;5092883;28;20478;-52
2021/03/15 11:31:00;;;;;;;16.30;4.00;;;;;;;11.29;61.75;99928.69;5094971;28;20540;-50
2021/03/15 11:33:28;;;;;;;20.20;3.77;;;;;;;11.17;62.02;99933.53;5093408;28;20750;-52
2021/03/15 11:35:57;;;;;;;9.47;3.20;;;;;;;10.89;61.45;99936.28;5094108;28;20867;-51
2021/03/15 11:38:25;;;;;;;16.50;2.97;;;;;;;10.70;61.82;99931.41;5092660;28;20467;-51
2021/03/15 11:40:52;;;;;;;21.57;2.53;;;;;;;11.12;61.38;99928.25;5086019;28;20447;-49
2021/03/15 11:43:20;;;;;;;19.00;3.17;;;;;;;11.33;61.38;99929.63;5092913;28;20797;-47